Terminal Aerodrome Forecast
Issued by NWS

Home | Current Version | Previous Version | Text Only | Print | Product List | Glossary On
Versions: 1 2 3 4 5 6 7 8 9 10 11 12 13 14 15 16 17 18 19 20 21 22
000
FTUS44 KHGX 010520
TAFLBX
TAF
KLBX 010520Z 0106/0206 10003KT 5SM BR SCT007 OVC016
      TEMPO 0106/0108 4SM BR OVC007
     FM010800 08005KT 4SM BR OVC007
     FM011500 12007KT P6SM BKN015
     FM011800 11008KT P6SM VCSH BKN040 PROB30 0121/0124 5SM -TSRA
      BKN030CB
     FM020100 08004KT P6SM OVC025=

USA.gov is the U.S. government's official web portal to all federal, state and local government web resources and services.